createdAt,value
2023-03-02T00:00:16.463Z,81.60
2023-03-02T00:02:47.298Z,81.70
2023-03-02T00:05:14.468Z,81.80
2023-03-02T00:07:41.458Z,82.00
2023-03-02T00:10:09.277Z,81.90
2023-03-02T00:12:36.280Z,82.00
2023-03-02T00:15:05.746Z,82.40
2023-03-02T00:17:32.835Z,82.00
2023-03-02T00:20:11.741Z,82.10
2023-03-02T00:22:40.868Z,82.00
2023-03-02T00:25:09.201Z,82.00
2023-03-02T00:27:36.358Z,82.00
2023-03-02T00:30:03.676Z,81.90
2023-03-02T00:32:30.736Z,81.90
2023-03-02T00:34:58.431Z,82.10
2023-03-02T00:37:28.263Z,82.20
2023-03-02T00:39:55.137Z,82.20
2023-03-02T00:42:22.670Z,82.00
2023-03-02T00:44:49.632Z,82.30
2023-03-02T00:47:17.453Z,82.40
2023-03-02T00:49:49.398Z,82.60
2023-03-02T00:52:17.370Z,82.40
2023-03-02T00:54:44.295Z,82.60
2023-03-02T00:57:11.531Z,82.60
2023-03-02T00:59:39.697Z,82.70
2023-03-02T01:02:29.419Z,82.70
2023-03-02T01:04:56.865Z,82.60
2023-03-02T01:07:28.589Z,82.60
2023-03-02T01:09:55.716Z,82.60
2023-03-02T01:12:22.983Z,82.80
2023-03-02T01:14:50.940Z,82.60
2023-03-02T01:17:19.519Z,82.70
2023-03-02T01:19:46.795Z,82.70
2023-03-02T01:22:14.094Z,82.80
2023-03-02T01:24:41.046Z,82.70
2023-03-02T01:27:09.367Z,82.60
2023-03-02T01:29:36.826Z,82.60
2023-03-02T01:32:04.965Z,82.30
2023-03-02T01:34:32.176Z,82.40
2023-03-02T01:36:59.633Z,82.40
2023-03-02T01:39:26.571Z,82.50
2023-03-02T01:41:53.571Z,82.50
2023-03-02T01:45:06.710Z,82.50
2023-03-02T01:47:53.721Z,82.60
2023-03-02T01:50:31.283Z,82.60
2023-03-02T01:52:59.727Z,82.40
2023-03-02T01:55:36.014Z,82.50
2023-03-02T01:58:05.437Z,83.30
2023-03-02T02:00:38.115Z,83.00
2023-03-02T02:03:12.760Z,82.80
2023-03-02T02:05:42.974Z,82.80
2023-03-02T02:08:10.543Z,82.50
2023-03-02T02:10:39.611Z,83.50
2023-03-02T02:13:17.607Z,82.80
2023-03-02T02:15:44.620Z,82.80
2023-03-02T02:21:15.614Z,82.80
2023-03-02T02:24:04.209Z,82.50
2023-03-02T02:26:43.932Z,82.70
2023-03-02T02:29:22.887Z,82.50
2023-03-02T06:18:15.558Z,84.30
2023-03-02T06:20:42.630Z,84.40
2023-03-02T06:35:36.726Z,84.20
2023-03-02T06:38:03.855Z,84.60
2023-03-02T06:40:31.513Z,85.10
2023-03-02T06:46:00.897Z,84.80
2023-03-02T06:55:32.822Z,84.50
2023-03-02T06:58:00.061Z,84.60
2023-03-02T07:03:29.637Z,84.70
2023-03-02T07:12:25.204Z,84.20
2023-03-02T07:18:05.827Z,84.60
2023-03-02T07:20:34.961Z,84.60
2023-03-02T07:23:02.170Z,84.70
2023-03-02T07:25:29.365Z,84.50
2023-03-02T07:27:56.312Z,84.70
2023-03-02T07:30:23.363Z,85.00
2023-03-02T07:32:51.162Z,84.60
2023-03-02T07:35:18.501Z,84.70
2023-03-02T07:37:45.720Z,84.90
2023-03-02T07:40:13.605Z,84.70
2023-03-02T07:42:41.283Z,84.60
2023-03-02T07:45:08.874Z,84.60
2023-03-02T07:47:35.849Z,84.70
2023-03-02T07:50:03.205Z,84.60
2023-03-02T07:52:31.084Z,84.50
2023-03-02T07:54:58.429Z,84.60
2023-03-02T07:57:31.485Z,84.80
2023-03-02T07:59:59.724Z,84.70
2023-03-02T08:02:26.850Z,84.60
2023-03-02T08:04:53.958Z,84.50
2023-03-02T08:07:21.067Z,84.70
2023-03-02T08:09:48.093Z,84.70
2023-03-02T08:12:15.050Z,84.80
2023-03-02T08:14:42.701Z,84.80
2023-03-02T08:17:09.876Z,84.50
2023-03-02T08:19:36.875Z,84.50
2023-03-02T08:22:04.235Z,84.40
2023-03-02T08:24:31.416Z,84.40
2023-03-02T08:27:15.485Z,84.20
2023-03-02T08:29:42.794Z,84.00
2023-03-02T08:32:09.897Z,84.50
2023-03-02T08:34:37.128Z,83.90
2023-03-02T08:37:04.214Z,83.70
2023-03-02T08:39:32.224Z,83.70
2023-03-02T08:41:59.377Z,84.30
2023-03-02T08:44:26.378Z,83.70
2023-03-02T08:46:53.323Z,83.80
2023-03-02T08:49:20.261Z,83.80
2023-03-02T08:51:49.081Z,83.50
2023-03-02T08:54:16.359Z,83.50
2023-03-02T08:56:44.442Z,83.20
2023-03-02T08:59:13.683Z,83.10
2023-03-02T09:01:41.785Z,83.30
2023-03-02T09:04:10.582Z,83.10
2023-03-02T09:06:40.754Z,83.00
2023-03-02T09:09:09.107Z,83.00
2023-03-02T09:11:36.227Z,83.00
2023-03-02T09:14:04.304Z,83.10
2023-03-02T09:16:31.871Z,83.00
2023-03-02T09:18:58.890Z,82.80
2023-03-02T09:21:26.357Z,83.30
2023-03-02T09:23:55.913Z,83.20
2023-03-02T09:26:23.707Z,82.80
2023-03-02T09:28:50.661Z,82.90
2023-03-02T09:31:17.570Z,83.00
2023-03-02T09:33:45.038Z,83.10
2023-03-02T09:36:18.230Z,82.80
2023-03-02T09:38:45.114Z,82.60
2023-03-02T09:41:21.129Z,82.40
2023-03-02T09:44:06.612Z,82.30
2023-03-02T09:46:50.455Z,82.20
2023-03-02T09:49:26.001Z,82.20
2023-03-02T09:52:21.074Z,82.60
2023-03-02T09:54:48.558Z,82.20
2023-03-02T09:57:29.118Z,82.10
2023-03-02T10:00:18.586Z,81.80
2023-03-02T10:02:56.227Z,81.80
2023-03-02T10:05:31.567Z,81.70
2023-03-02T10:07:59.440Z,81.30
2023-03-02T10:10:41.406Z,81.20
2023-03-02T10:13:44.639Z,81.00
2023-03-02T10:16:26.002Z,80.30
2023-03-02T10:19:07.821Z,80.10
2023-03-02T10:21:38.456Z,80.60
2023-03-02T10:24:20.443Z,80.90
2023-03-02T10:26:59.159Z,80.70
2023-03-02T10:29:35.078Z,80.50
2023-03-02T10:32:13.597Z,80.30
2023-03-02T10:34:40.702Z,80.50
2023-03-02T10:37:21.700Z,80.50
2023-03-02T10:39:49.662Z,80.60
2023-03-02T10:42:27.667Z,80.70
2023-03-02T10:45:01.716Z,80.60
2023-03-02T10:47:29.641Z,80.60
2023-03-02T10:49:58.260Z,80.50
2023-03-02T10:52:27.887Z,80.60
2023-03-02T10:55:14.612Z,80.60
2023-03-02T10:57:44.070Z,80.70
2023-03-02T11:00:18.788Z,80.30
2023-03-02T11:02:57.713Z,80.30
2023-03-02T11:05:32.025Z,80.30
2023-03-02T11:08:03.182Z,80.30
2023-03-02T11:10:37.718Z,79.90
2023-03-02T11:13:32.289Z,80.10
2023-03-02T11:16:02.147Z,80.40
2023-03-02T11:18:43.213Z,80.20
2023-03-02T11:21:17.227Z,80.40
2023-03-02T11:23:59.871Z,80.20
2023-03-02T11:26:40.505Z,79.70
2023-03-02T11:29:22.215Z,79.50
2023-03-02T11:31:53.490Z,79.70
2023-03-02T11:34:20.596Z,79.80
2023-03-02T11:37:14.978Z,79.90
2023-03-02T11:39:55.128Z,79.70
2023-03-02T11:42:28.730Z,79.40
2023-03-02T11:44:55.708Z,79.40
2023-03-02T11:47:23.080Z,79.00
2023-03-02T11:50:00.269Z,79.10
2023-03-02T11:52:30.167Z,79.00
2023-03-02T11:55:14.323Z,80.60
2023-03-02T11:57:48.636Z,83.30
2023-03-02T12:00:39.670Z,82.20
2023-03-02T12:03:06.924Z,80.60
2023-03-02T12:05:43.387Z,80.10
2023-03-02T12:12:25.497Z,79.90
2023-03-02T12:14:52.891Z,79.90
2023-03-02T12:17:24.820Z,79.90
2023-03-02T12:20:07.675Z,79.50
2023-03-02T12:22:36.096Z,79.70
2023-03-02T12:25:21.307Z,79.60
2023-03-02T12:27:50.599Z,79.40
2023-03-02T12:30:26.246Z,79.40
2023-03-02T12:33:11.408Z,79.40
2023-03-02T12:35:39.162Z,79.50
2023-03-02T12:38:14.508Z,79.50
2023-03-02T12:41:25.512Z,79.50
2023-03-02T12:44:04.623Z,79.00
2023-03-02T12:46:37.136Z,78.60
2023-03-02T12:49:05.539Z,78.60
2023-03-02T12:51:58.331Z,78.70
2023-03-02T12:54:30.598Z,78.60
2023-03-02T12:57:03.627Z,79.30
2023-03-02T12:59:30.533Z,78.90
2023-03-02T13:02:33.810Z,79.00
2023-03-02T13:05:03.985Z,79.10
2023-03-02T13:07:35.854Z,79.00
2023-03-02T13:10:09.405Z,78.90
2023-03-02T13:12:37.926Z,78.70
2023-03-02T13:15:15.681Z,78.60
2023-03-02T13:17:42.935Z,78.50
2023-03-02T13:20:13.231Z,78.10
2023-03-02T13:22:40.847Z,78.30
2023-03-02T13:25:30.986Z,78.20
2023-03-02T13:28:10.773Z,78.40
2023-03-02T13:30:43.557Z,78.10
2023-03-02T13:33:22.616Z,78.40
2023-03-02T13:35:49.948Z,78.60
2023-03-02T13:38:22.019Z,78.90
2023-03-02T13:40:51.669Z,78.50
2023-03-02T13:43:22.712Z,78.40
2023-03-02T13:45:55.791Z,78.20
2023-03-02T13:48:23.246Z,77.90
2023-03-02T13:51:03.459Z,77.80
2023-03-02T13:53:34.743Z,77.70
2023-03-02T13:56:02.848Z,77.70
2023-03-02T13:58:32.950Z,77.50
2023-03-02T14:01:00.031Z,77.40
2023-03-02T14:03:30.133Z,77.40
2023-03-02T14:05:59.114Z,77.40
2023-03-02T14:08:25.944Z,77.80
2023-03-02T14:10:54.986Z,77.60
2023-03-02T14:13:25.261Z,77.50
2023-03-02T14:15:53.554Z,77.40
2023-03-02T14:18:26.259Z,77.60
2023-03-02T14:20:53.269Z,77.40
2023-03-02T14:23:20.210Z,77.30
2023-03-02T14:25:47.202Z,77.30
2023-03-02T14:28:44.879Z,77.30
2023-03-02T14:31:13.024Z,77.40
2023-03-02T14:33:39.845Z,77.50
2023-03-02T14:36:07.140Z,77.70
2023-03-02T14:38:34.776Z,77.60
2023-03-02T14:41:01.622Z,77.80
2023-03-02T14:43:30.604Z,77.90
2023-03-02T14:45:57.518Z,78.10
2023-03-02T14:48:24.460Z,77.90
2023-03-02T14:50:51.865Z,77.80
2023-03-02T14:53:28.894Z,77.90
2023-03-02T14:55:55.841Z,77.90
2023-03-02T14:58:32.916Z,77.90
2023-03-02T15:01:00.908Z,77.90
2023-03-02T15:03:28.249Z,77.80
2023-03-02T15:06:01.569Z,77.80
2023-03-02T15:08:30.001Z,77.80
2023-03-02T15:10:57.034Z,77.80
2023-03-02T15:13:23.963Z,77.70
2023-03-02T15:15:52.718Z,77.80
2023-03-02T15:18:19.962Z,77.80
2023-03-02T15:20:47.106Z,77.90
2023-03-02T15:23:14.015Z,78.00
2023-03-02T15:25:40.947Z,78.00
2023-03-02T15:28:07.777Z,78.00
2023-03-02T15:30:34.689Z,78.10
2023-03-02T15:33:01.678Z,77.90
2023-03-02T15:35:29.353Z,78.00
2023-03-02T15:37:58.277Z,77.90
2023-03-02T15:40:25.810Z,77.70
2023-03-02T15:42:53.149Z,77.70
2023-03-02T15:45:20.233Z,77.70
2023-03-02T15:47:47.185Z,77.80
2023-03-02T15:50:14.157Z,77.80
2023-03-02T15:52:41.589Z,77.80
2023-03-02T15:55:09.156Z,77.90
2023-03-02T15:57:39.654Z,77.60
2023-03-02T16:00:07.664Z,77.40
2023-03-02T16:02:34.959Z,77.30
2023-03-02T16:05:01.995Z,77.50
2023-03-02T16:07:30.682Z,77.30
2023-03-02T16:09:57.666Z,77.40
2023-03-02T16:12:26.011Z,77.20
2023-03-02T16:14:53.008Z,77.30
2023-03-02T16:17:20.943Z,77.30
2023-03-02T16:19:47.844Z,77.40
2023-03-02T16:22:14.824Z,77.50
2023-03-02T16:24:42.054Z,77.70
2023-03-02T16:27:09.102Z,77.70
2023-03-02T16:29:36.146Z,77.70
2023-03-02T16:32:03.364Z,77.70
2023-03-02T16:34:30.366Z,77.80
2023-03-02T16:36:57.183Z,77.80
2023-03-02T16:39:24.592Z,77.80
2023-03-02T16:41:51.465Z,77.90
2023-03-02T16:44:19.054Z,78.10
2023-03-02T16:46:46.582Z,77.80
2023-03-02T16:49:13.870Z,77.70
2023-03-02T16:51:42.025Z,77.60
2023-03-02T16:54:09.106Z,77.60
2023-03-02T16:56:36.048Z,77.80
2023-03-02T16:59:03.103Z,77.70
2023-03-02T17:01:30.239Z,77.70
2023-03-02T17:03:57.321Z,77.70
2023-03-02T17:06:24.907Z,77.90
2023-03-02T17:08:51.874Z,78.00
2023-03-02T17:11:19.787Z,78.20
2023-03-02T17:13:47.183Z,78.20
2023-03-02T17:16:14.334Z,78.10
2023-03-02T17:18:41.415Z,78.30
2023-03-02T17:21:08.380Z,77.90
2023-03-02T17:23:37.074Z,77.70
2023-03-02T17:26:04.487Z,77.90
2023-03-02T17:28:31.572Z,77.90
2023-03-02T17:30:59.830Z,77.80
2023-03-02T17:33:29.520Z,77.90
2023-03-02T17:35:56.350Z,78.00
2023-03-02T17:38:23.546Z,78.00
2023-03-02T17:40:50.417Z,78.20
2023-03-02T17:43:17.336Z,78.70
2023-03-02T17:45:44.494Z,79.20
2023-03-02T17:48:11.352Z,79.40
2023-03-02T17:50:38.507Z,80.00
2023-03-02T17:53:05.376Z,79.50
2023-03-02T17:55:32.311Z,79.40
2023-03-02T17:57:59.300Z,79.40
2023-03-02T18:00:26.620Z,79.40
2023-03-02T18:02:54.110Z,79.60
2023-03-02T18:05:21.882Z,79.50
2023-03-02T18:07:48.999Z,79.80
2023-03-02T18:10:16.104Z,80.00
2023-03-02T18:12:43.115Z,80.00
2023-03-02T18:15:11.681Z,80.30
2023-03-02T18:17:39.031Z,80.10
2023-03-02T18:20:06.525Z,79.90
2023-03-02T18:22:33.642Z,79.90
2023-03-02T18:25:00.502Z,79.90
2023-03-02T18:27:27.444Z,80.20
2023-03-02T18:29:54.395Z,80.50
2023-03-02T18:32:21.540Z,80.30
2023-03-02T18:34:48.465Z,80.20
2023-03-02T18:37:15.514Z,80.60
2023-03-02T18:39:42.450Z,80.80
2023-03-02T18:42:11.590Z,81.00
2023-03-02T18:44:39.502Z,81.30
2023-03-02T18:47:07.570Z,81.30
2023-03-02T18:49:34.510Z,81.30
2023-03-02T18:52:05.786Z,81.50
2023-03-02T18:54:32.918Z,81.70
2023-03-02T18:57:01.550Z,81.60
2023-03-02T18:59:29.246Z,81.70
2023-03-02T19:01:57.382Z,81.80
2023-03-02T19:04:26.620Z,81.80
2023-03-02T19:06:56.173Z,81.90
2023-03-02T19:09:23.626Z,82.00
2023-03-02T19:11:50.550Z,81.90
2023-03-02T19:14:18.092Z,81.90
2023-03-02T19:16:45.706Z,82.00
2023-03-02T19:19:12.836Z,81.90
2023-03-02T19:21:39.995Z,81.90
2023-03-02T19:24:07.442Z,81.80
2023-03-02T19:26:34.911Z,81.80
2023-03-02T19:29:01.996Z,82.00
2023-03-02T19:31:30.395Z,82.10
2023-03-02T19:33:57.811Z,82.20
2023-03-02T19:36:24.822Z,82.30
2023-03-02T19:38:51.832Z,82.10
2023-03-02T19:41:20.431Z,82.00
2023-03-02T19:43:47.717Z,82.10
2023-03-02T19:46:16.779Z,82.00
2023-03-02T19:48:43.915Z,82.00
2023-03-02T19:51:12.206Z,82.50
2023-03-02T19:53:40.270Z,82.50
2023-03-02T19:56:11.773Z,82.70
2023-03-02T19:58:47.608Z,82.80
2023-03-02T20:01:17.146Z,82.80
2023-03-02T20:03:44.355Z,82.90
2023-03-02T20:06:11.265Z,82.80
2023-03-02T20:08:38.321Z,82.60
2023-03-02T20:11:05.310Z,82.70
2023-03-02T20:13:33.917Z,82.70
2023-03-02T20:16:01.139Z,82.60
2023-03-02T20:18:28.248Z,82.50
2023-03-02T20:20:55.210Z,82.60
2023-03-02T20:23:22.512Z,82.80
2023-03-02T20:25:49.395Z,82.70
2023-03-02T20:28:19.459Z,82.70
2023-03-02T20:30:51.623Z,82.70
2023-03-02T20:33:22.236Z,82.80
2023-03-02T20:35:49.654Z,82.60
2023-03-02T20:38:21.261Z,82.70
2023-03-02T20:40:48.427Z,82.60
2023-03-02T20:43:15.441Z,82.60
2023-03-02T20:45:42.776Z,82.60
2023-03-02T20:48:09.994Z,82.70
2023-03-02T20:50:38.081Z,82.70
2023-03-02T20:53:09.184Z,82.80
2023-03-02T20:55:36.545Z,82.90
2023-03-02T20:58:05.380Z,82.90
2023-03-02T21:00:34.318Z,82.90
2023-03-02T21:03:01.390Z,82.50
2023-03-02T21:05:29.794Z,82.50
2023-03-02T21:07:57.368Z,82.50
2023-03-02T21:10:30.930Z,82.50
2023-03-02T21:12:58.063Z,82.60
2023-03-02T21:15:27.154Z,82.50
2023-03-02T21:17:55.816Z,82.60
2023-03-02T21:20:24.391Z,82.70
2023-03-02T21:22:51.403Z,82.70
2023-03-02T21:25:18.602Z,82.60
2023-03-02T21:27:45.653Z,82.70
2023-03-02T21:30:22.493Z,82.80
2023-03-02T21:32:49.772Z,82.70
2023-03-02T21:35:20.073Z,82.80
2023-03-02T21:37:49.160Z,82.90
2023-03-02T21:40:20.538Z,82.90
2023-03-02T21:42:47.723Z,82.70
2023-03-02T21:45:14.756Z,82.70
2023-03-02T21:47:42.635Z,82.90
2023-03-02T21:50:14.724Z,82.70
2023-03-02T21:52:41.567Z,82.70
2023-03-02T21:55:09.103Z,82.80
2023-03-02T21:57:36.017Z,82.40
2023-03-02T22:00:05.301Z,82.40
2023-03-02T22:02:32.652Z,82.30
2023-03-02T22:04:59.592Z,82.30
2023-03-02T22:07:26.615Z,82.40
2023-03-02T22:09:53.661Z,82.40
2023-03-02T22:12:23.644Z,82.50
2023-03-02T22:14:51.627Z,82.40
2023-03-02T22:17:21.589Z,82.40
2023-03-02T22:19:52.450Z,82.40
2023-03-02T22:22:24.314Z,82.30
2023-03-02T22:24:52.266Z,82.30
2023-03-02T22:27:23.617Z,82.20
2023-03-02T22:29:53.085Z,82.30
2023-03-02T22:32:23.153Z,82.20
2023-03-02T22:34:53.443Z,82.00
2023-03-02T22:37:23.703Z,82.10
2023-03-02T22:39:54.769Z,82.00
2023-03-02T22:42:24.133Z,82.70
2023-03-02T22:45:06.521Z,82.20
2023-03-02T22:47:33.446Z,82.20
2023-03-02T22:50:14.204Z,82.20
2023-03-02T22:52:43.917Z,82.20
2023-03-02T22:55:29.583Z,82.10
2023-03-02T22:57:56.550Z,82.20
2023-03-02T23:00:35.257Z,82.30
2023-03-02T23:03:02.200Z,82.40
2023-03-02T23:05:34.634Z,82.50
2023-03-02T23:08:19.893Z,82.50
2023-03-02T23:10:48.110Z,82.50
2023-03-02T23:13:18.948Z,82.30
2023-03-02T23:15:47.080Z,82.20
2023-03-02T23:18:28.798Z,82.20
2023-03-02T23:20:56.225Z,82.30
2023-03-02T23:23:24.624Z,82.40
2023-03-02T23:25:51.546Z,82.40
2023-03-02T23:28:18.404Z,82.40
2023-03-02T23:30:45.432Z,82.30
2023-03-02T23:33:12.310Z,82.20
2023-03-02T23:35:39.896Z,82.10
2023-03-02T23:38:06.895Z,82.00
2023-03-02T23:40:33.885Z,82.10
2023-03-02T23:43:00.846Z,82.20
2023-03-02T23:45:27.887Z,82.30
2023-03-02T23:47:54.823Z,82.40
2023-03-02T23:50:21.746Z,82.40
2023-03-02T23:52:49.234Z,82.60
2023-03-02T23:55:16.415Z,82.50
2023-03-02T23:57:43.437Z,82.70
